Time;durP1;ratioP1;P1;durP2;ratioP2;P2;SDS_P1;SDS_P2;PMS_P1;PMS_P2;Temp;Humidity;BMP_temperature;BMP_pressure;BME280_temperature;BME280_humidity;BME280_pressure;Samples;Min_cycle;Max_cycle;Signal;HPM_P1;HPM_P2
2023/08/21 04:00:40;;;;;;;5.17;3.40;;;20.20;97.30;;;;;;6073318;23;21385;31
2023/08/21 04:03:06;;;;;;;1.73;1.63;;;20.20;97.30;;;;;;4931949;29;20451;-90
2023/08/21 04:05:31;;;;;;;1.73;1.40;;;20.20;97.30;;;;;;4932958;29;20546;-90
2023/08/21 04:07:57;;;;;;;2.60;2.40;;;20.20;97.30;;;;;;4934749;29;20184;-90
2023/08/21 04:10:22;;;;;;;2.87;1.53;;;20.20;97.30;;;;;;4934133;29;20662;-89
2023/08/21 04:12:48;;;;;;;2.60;1.50;;;20.10;97.30;;;;;;4933097;29;20677;-90
2023/08/21 04:15:14;;;;;;;4.47;1.87;;;20.10;97.30;;;;;;4963932;23;20522;-63
2023/08/21 04:17:39;;;;;;;2.10;1.50;;;20.10;97.30;;;;;;4950347;28;20202;-63
2023/08/21 04:20:05;;;;;;;4.10;2.27;;;20.10;97.30;;;;;;4966279;28;20541;-63
2023/08/21 04:22:31;;;;;;;2.20;2.03;;;20.10;97.30;;;;;;4951303;28;20627;-63
2023/08/21 04:24:57;;;;;;;2.37;2.17;;;20.10;97.30;;;;;;4959654;28;20473;-64
2023/08/21 04:27:22;;;;;;;3.63;1.43;;;20.10;97.30;;;;;;4949852;28;20336;-63
2023/08/21 04:29:48;;;;;;;1.80;1.70;;;20.10;97.30;;;;;;4947698;28;20187;-63
2023/08/21 04:32:13;;;;;;;4.37;3.93;;;20.10;97.30;;;;;;4950428;28;20421;-63
2023/08/21 04:34:39;;;;;;;1.43;1.40;;;20.20;97.30;;;;;;4950396;28;20269;-63
2023/08/21 04:37:04;;;;;;;2.93;1.90;;;20.20;97.30;;;;;;4950458;28;20191;-63
2023/08/21 04:39:30;;;;;;;1.63;1.53;;;20.20;97.30;;;;;;4950691;28;20187;-64
2023/08/21 04:41:56;;;;;;;1.53;1.47;;;20.20;97.30;;;;;;4965611;28;20206;-63
2023/08/21 04:44:21;;;;;;;5.03;2.90;;;20.20;97.30;;;;;;4950746;28;20191;-63
2023/08/21 04:46:48;;;;;;;3.23;2.27;;;20.20;97.30;;;;;;4950032;28;20207;-63
2023/08/21 04:49:14;;;;;;;1.87;1.63;;;20.20;97.30;;;;;;4946613;28;20194;-63
2023/08/21 04:51:39;;;;;;;1.77;1.67;;;20.20;97.30;;;;;;4949076;28;20454;-63
2023/08/21 04:54:05;;;;;;;2.43;1.93;;;20.20;97.30;;;;;;4957217;28;20911;-63
2023/08/21 04:56:30;;;;;;;1.87;1.83;;;20.20;97.30;;;;;;4948548;28;20689;-63
2023/08/21 04:58:56;;;;;;;6.63;3.57;;;20.20;97.30;;;;;;4954622;28;20588;-63
2023/08/21 05:01:22;;;;;;;1.80;1.53;;;20.10;97.30;;;;;;4963384;28;20658;-63
2023/08/21 05:03:47;;;;;;;2.37;2.17;;;20.10;97.30;;;;;;4961622;28;20564;-63
2023/08/21 05:06:13;;;;;;;2.60;2.13;;;20.10;97.30;;;;;;4964296;28;20233;-63
2023/08/21 05:08:38;;;;;;;1.53;1.43;;;20.10;97.30;;;;;;4951396;28;20237;-63
2023/08/21 05:11:04;;;;;;;2.20;1.73;;;20.10;97.30;;;;;;4955818;28;20899;-63
2023/08/21 05:13:29;;;;;;;1.57;1.57;;;20.20;97.30;;;;;;4954180;28;20179;-63
2023/08/21 05:15:57;;;;;;;2.93;2.13;;;20.20;97.30;;;;;;4954832;28;20222;-63
2023/08/21 05:18:24;;;;;;;1.73;1.63;;;20.20;97.30;;;;;;4948350;28;20206;-63
2023/08/21 05:20:50;;;;;;;1.93;1.70;;;20.20;97.30;;;;;;4946686;28;20458;-63
2023/08/21 05:23:15;;;;;;;3.00;2.17;;;20.30;97.30;;;;;;4953775;28;20476;-63
2023/08/21 05:25:45;;;;;;;1.80;1.70;;;20.40;97.30;;;;;;4958995;28;20482;-63
2023/08/21 05:28:11;;;;;;;3.93;2.43;;;20.40;97.30;;;;;;4956886;28;20190;-63
2023/08/21 05:30:36;;;;;;;4.53;2.57;;;20.50;97.30;;;;;;4948386;28;20447;-64
2023/08/21 05:33:03;;;;;;;3.63;2.33;;;20.60;97.30;;;;;;4954340;28;20183;-63
2023/08/21 05:35:32;;;;;;;2.70;2.10;;;20.70;97.30;;;;;;4947908;28;20179;-63
2023/08/21 05:37:57;;;;;;;1.70;1.63;;;20.80;97.30;;;;;;4947914;28;20477;-63
2023/08/21 05:40:23;;;;;;;2.07;1.93;;;20.90;97.30;;;;;;4962115;28;20469;-63
2023/08/21 05:42:48;;;;;;;3.30;2.30;;;20.90;97.30;;;;;;4947946;28;20191;-63
2023/08/21 05:45:14;;;;;;;3.50;3.30;;;21.00;97.30;;;;;;4947590;28;20266;-63
2023/08/21 05:47:40;;;;;;;4.20;3.03;;;21.10;97.30;;;;;;4970491;28;20484;-63
2023/08/21 05:50:06;;;;;;;4.00;3.53;;;21.10;97.30;;;;;;4947616;28;20341;-63
2023/08/21 05:52:31;;;;;;;6.97;2.53;;;21.20;97.30;;;;;;4947786;28;20662;-63
2023/08/21 05:54:57;;;;;;;5.57;3.83;;;21.20;97.30;;;;;;4962922;28;20187;-63
2023/08/21 05:57:22;;;;;;;2.57;2.40;;;21.30;97.30;;;;;;4950084;28;21012;-63
2023/08/21 05:59:48;;;;;;;12.37;3.30;;;21.30;97.30;;;;;;4956868;28;20638;-64
2023/08/21 06:02:14;;;;;;;2.30;2.07;;;21.30;97.30;;;;;;4956852;28;20234;-63
2023/08/21 06:04:43;;;;;;;3.77;3.00;;;21.40;97.30;;;;;;4953607;28;20202;-63
2023/08/21 06:07:09;;;;;;;2.80;2.37;;;21.40;97.30;;;;;;4956767;28;20701;-63
2023/08/21 06:09:35;;;;;;;2.70;2.50;;;21.50;97.30;;;;;;4950299;28;20453;-63
2023/08/21 06:12:01;;;;;;;6.20;4.63;;;21.50;97.30;;;;;;4963125;28;21000;-63
2023/08/21 06:14:30;;;;;;;4.47;3.00;;;21.60;97.30;;;;;;4953105;28;20435;-63
2023/08/21 06:17:05;;;;;;;2.70;2.07;;;21.60;97.30;;;;;;4948959;28;20241;-63
2023/08/21 06:19:31;;;;;;;2.40;2.20;;;21.70;97.30;;;;;;4949579;28;20462;-63
2023/08/21 06:21:56;;;;;;;17.40;4.03;;;21.70;97.30;;;;;;4948641;28;20455;-63
2023/08/21 06:24:23;;;;;;;3.33;1.90;;;21.80;97.30;;;;;;4950029;28;20194;-63
2023/08/21 06:26:49;;;;;;;3.10;2.40;;;21.80;97.30;;;;;;4953788;28;20223;-63
2023/08/21 06:29:14;;;;;;;1.43;1.33;;;21.90;97.30;;;;;;4954246;28;20570;-64
2023/08/21 06:31:40;;;;;;;1.80;1.63;;;21.90;97.30;;;;;;4968404;28;20203;-63
2023/08/21 06:34:05;;;;;;;6.20;1.87;;;21.90;97.30;;;;;;4953590;28;20686;-63
2023/08/21 06:36:31;;;;;;;2.60;2.40;;;22.00;97.30;;;;;;4953513;28;20203;-63
2023/08/21 06:38:57;;;;;;;1.50;1.40;;;22.00;97.30;;;;;;4965056;28;20188;-63
2023/08/21 06:41:22;;;;;;;3.80;2.90;;;22.10;97.30;;;;;;4957699;28;20411;-63
2023/08/21 06:43:48;;;;;;;3.93;2.53;;;22.10;97.30;;;;;;4953326;28;20566;-63
2023/08/21 06:46:13;;;;;;;6.37;2.53;;;22.20;97.30;;;;;;4953375;28;20211;-63
2023/08/21 06:48:43;;;;;;;2.17;1.60;;;22.20;97.30;;;;;;4968008;28;20183;-63
2023/08/21 06:51:09;;;;;;;3.87;2.77;;;22.20;97.30;;;;;;4974202;28;20210;-63
2023/08/21 06:53:35;;;;;;;1.70;1.40;;;22.30;97.30;;;;;;4952999;28;20422;-64
2023/08/21 06:56:00;;;;;;;5.03;3.10;;;22.30;97.30;;;;;;4960102;28;20537;-63
2023/08/21 06:58:26;;;;;;;5.43;2.27;;;22.40;97.30;;;;;;4953242;28;20213;-63
2023/08/21 07:00:53;;;;;;;6.40;1.87;;;22.40;97.30;;;;;;4960871;28;20203;-64
2023/08/21 07:03:20;;;;;;;3.23;2.60;;;22.40;97.30;;;;;;4953310;28;20195;-63
2023/08/21 07:05:59;;;;;;;2.17;1.80;;;22.50;97.30;;;;;;4952758;28;20462;-63
2023/08/21 07:08:26;;;;;;;4.33;2.37;;;22.50;97.30;;;;;;4961218;28;20414;-64
2023/08/21 07:10:53;;;;;;;1.93;1.50;;;22.60;97.30;;;;;;4963150;28;20449;-64
2023/08/21 07:13:19;;;;;;;2.70;1.70;;;22.60;97.30;;;;;;4958165;28;20474;-64
2023/08/21 07:15:46;;;;;;;3.40;3.27;;;22.60;97.30;;;;;;4967198;28;20489;-63
2023/08/21 07:18:12;;;;;;;4.43;2.90;;;22.70;97.30;;;;;;4952877;28;20430;-63
2023/08/21 07:20:38;;;;;;;2.97;2.80;;;22.70;97.30;;;;;;4952508;28;20438;-63
2023/08/21 07:23:03;;;;;;;2.90;1.73;;;22.70;97.30;;;;;;4952881;28;20445;-64
2023/08/21 07:25:29;;;;;;;2.87;2.27;;;22.80;97.30;;;;;;4967055;28;20197;-63
2023/08/21 07:27:55;;;;;;;3.10;1.83;;;22.80;97.30;;;;;;4967897;28;20588;-64
2023/08/21 07:30:22;;;;;;;3.20;2.17;;;22.80;97.30;;;;;;4962494;28;20655;-63
2023/08/21 07:32:48;;;;;;;1.53;1.50;;;22.80;97.30;;;;;;4952644;28;20179;-64
2023/08/21 07:35:14;;;;;;;3.00;2.60;;;22.80;97.30;;;;;;4955457;28;20427;-64
2023/08/21 07:37:40;;;;;;;3.40;2.67;;;22.80;97.30;;;;;;4949620;28;20957;-63
2023/08/21 07:40:07;;;;;;;3.23;1.63;;;22.80;97.30;;;;;;4951867;28;20176;-64
2023/08/21 07:42:33;;;;;;;2.00;1.90;;;22.70;97.30;;;;;;4950416;28;20753;-64
2023/08/21 07:44:58;;;;;;;3.27;3.07;;;22.70;97.30;;;;;;4966803;28;20450;-64
2023/08/21 07:47:26;;;;;;;3.90;2.10;;;22.70;97.30;;;;;;4952244;28;20726;-64
2023/08/21 07:49:51;;;;;;;2.83;2.00;;;22.70;97.30;;;;;;4952043;28;20710;-64
2023/08/21 07:52:17;;;;;;;3.40;2.13;;;22.70;97.30;;;;;;4952371;28;20486;-64
2023/08/21 07:54:42;;;;;;;4.80;3.40;;;22.70;97.30;;;;;;4951151;28;20419;-64
2023/08/21 07:57:08;;;;;;;2.73;2.53;;;22.70;97.30;;;;;;4960085;28;20187;-64
2023/08/21 07:59:34;;;;;;;4.10;3.37;;;22.70;97.30;;;;;;4952229;28;20191;-64
2023/08/21 08:02:00;;;;;;;2.33;2.20;;;22.70;97.30;;;;;;4951851;28;20705;-64
2023/08/21 08:04:26;;;;;;;2.47;2.33;;;22.60;97.30;;;;;;4951907;28;20270;-64
2023/08/21 08:06:52;;;;;;;3.73;3.07;;;22.60;97.30;;;;;;4958448;28;20477;-65
2023/08/21 08:09:18;;;;;;;2.87;2.70;;;22.60;97.30;;;;;;4951744;28;20703;-64
2023/08/21 08:11:43;;;;;;;2.80;1.90;;;22.60;97.30;;;;;;4951547;28;20286;-64
2023/08/21 08:14:09;;;;;;;1.87;1.77;;;22.60;97.30;;;;;;4955923;28;20867;-64
2023/08/21 08:16:34;;;;;;;3.73;2.70;;;22.60;97.30;;;;;;4969327;28;20313;-64
2023/08/21 08:19:00;;;;;;;4.23;2.40;;;22.70;97.30;;;;;;4951543;28;20187;-64
2023/08/21 08:21:25;;;;;;;3.27;3.07;;;22.70;97.30;;;;;;4958299;28;20207;-64
2023/08/21 08:23:51;;;;;;;2.70;2.13;;;22.70;97.30;;;;;;4965611;28;20193;-64
2023/08/21 08:26:16;;;;;;;3.10;2.40;;;22.70;97.30;;;;;;4951239;28;20207;-64
2023/08/21 08:28:42;;;;;;;2.40;1.57;;;22.80;97.30;;;;;;4951630;28;20648;-64
2023/08/21 08:31:15;;;;;;;29.43;2.60;;;22.80;97.30;;;;;;4951373;28;20199;-64
2023/08/21 08:33:40;;;;;;;6.20;3.87;;;22.90;97.30;;;;;;4951752;28;20279;-64
2023/08/21 08:36:06;;;;;;;4.63;2.30;;;22.90;97.30;;;;;;4962605;28;20508;-64
2023/08/21 08:38:31;;;;;;;1.93;1.40;;;22.90;97.30;;;;;;4955708;28;20206;-64
2023/08/21 08:40:58;;;;;;;17.43;2.20;;;23.00;97.30;;;;;;4950733;28;20215;-64
2023/08/21 08:43:27;;;;;;;2.13;1.50;;;23.00;97.30;;;;;;4951573;28;20195;-64
2023/08/21 08:45:54;;;;;;;1.83;1.50;;;23.10;97.30;;;;;;4973447;28;20517;-64
2023/08/21 08:48:20;;;;;;;5.90;1.90;;;23.30;97.30;;;;;;4950696;28;20421;-64
2023/08/21 08:50:50;;;;;;;1.33;1.23;;;23.40;97.30;;;;;;4951948;28;20500;-64
2023/08/21 08:53:16;;;;;;;2.30;1.43;;;23.50;97.30;;;;;;4956267;28;20462;-64
2023/08/21 08:55:41;;;;;;;1.80;1.70;;;23.50;97.30;;;;;;4949376;28;20950;-64
2023/08/21 08:58:07;;;;;;;2.70;2.00;;;23.60;97.30;;;;;;4964887;28;20194;-64
2023/08/21 09:00:32;;;;;;;2.40;1.70;;;23.70;97.30;;;;;;4960554;28;20211;-64
2023/08/21 09:02:58;;;;;;;1.60;1.40;;;23.80;97.30;;;;;;4949399;28;20281;-64
2023/08/21 09:05:24;;;;;;;2.07;1.93;;;23.90;97.30;;;;;;4965855;28;20199;-64
2023/08/21 09:08:08;;;;;;;1.80;1.70;;;24.00;97.30;;;;;;4951065;28;20210;-63
2023/08/21 09:10:35;;;;;;;2.40;1.40;;;24.00;97.30;;;;;;4953438;28;20211;-64
2023/08/21 09:13:08;;;;;;;1.53;1.43;;;24.10;97.30;;;;;;4958837;28;20497;-64
2023/08/21 09:15:35;;;;;;;2.83;1.87;;;24.20;97.30;;;;;;4950506;28;20966;-64
2023/08/21 09:18:01;;;;;;;2.40;1.47;;;24.20;97.30;;;;;;4950738;28;20427;-64
2023/08/21 09:20:26;;;;;;;8.53;2.37;;;24.30;97.30;;;;;;4950694;28;20465;-64
2023/08/21 09:22:56;;;;;;;2.20;2.03;;;24.30;97.30;;;;;;4952093;28;20237;-64
2023/08/21 09:25:24;;;;;;;1.40;1.37;;;24.40;97.30;;;;;;4971698;28;20193;-64
2023/08/21 09:27:52;;;;;;;1.30;1.23;;;24.50;97.30;;;;;;4950887;28;20454;-64
2023/08/21 09:30:17;;;;;;;1.10;1.00;;;24.50;97.30;;;;;;4962496;28;20532;-64
2023/08/21 09:32:52;;;;;;;7.47;3.00;;;24.60;97.30;;;;;;4947737;28;20493;-64
2023/08/21 09:35:18;;;;;;;1.60;1.50;;;24.70;97.30;;;;;;4950820;28;20187;-64
2023/08/21 09:37:46;;;;;;;1.10;0.97;;;24.70;97.30;;;;;;4965597;28;20430;-64
2023/08/21 09:40:12;;;;;;;1.77;1.30;;;24.80;97.30;;;;;;4949478;28;20190;-64
2023/08/21 09:42:39;;;;;;;1.13;1.07;;;24.80;97.30;;;;;;4950744;28;20981;-64
2023/08/21 09:45:06;;;;;;;1.73;1.63;;;24.90;97.30;;;;;;4950809;28;20215;-64
2023/08/21 09:47:33;;;;;;;1.87;1.77;;;24.90;97.30;;;;;;4949018;28;20478;-64
2023/08/21 09:49:59;;;;;;;2.90;1.30;;;24.90;97.30;;;;;;4957083;28;20422;-64
2023/08/21 09:52:26;;;;;;;2.00;1.63;;;25.00;97.30;;;;;;4954479;28;20501;-64
2023/08/21 09:54:54;;;;;;;1.40;1.30;;;25.00;97.30;;;;;;4953042;28;20427;-64
2023/08/21 09:57:22;;;;;;;1.50;1.33;;;25.10;97.30;;;;;;4955317;28;20426;-64
2023/08/21 09:59:52;;;;;;;1.10;1.00;;;25.20;97.30;;;;;;4963133;28;20438;-63
2023/08/21 10:02:18;;;;;;;1.87;1.30;;;25.30;96.40;;;;;;4960936;28;20482;-64
2023/08/21 10:04:45;;;;;;;1.00;0.90;;;25.40;96.60;;;;;;4960809;28;20955;-64
2023/08/21 10:07:12;;;;;;;2.40;2.20;;;25.40;97.00;;;;;;4973574;28;20210;-64
2023/08/21 10:09:41;;;;;;;1.70;1.20;;;25.50;96.90;;;;;;4958572;28;20482;-63
2023/08/21 10:12:09;;;;;;;1.43;1.30;;;25.50;96.40;;;;;;4953237;28;20454;-64
2023/08/21 10:14:35;;;;;;;1.30;1.20;;;25.50;95.00;;;;;;4973641;28;20425;-64
2023/08/21 10:17:02;;;;;;;0.90;0.80;;;25.60;95.30;;;;;;5015417;23;20544;-88
2023/08/21 10:19:32;;;;;;;1.20;1.10;;;25.60;94.60;;;;;;4972744;28;20428;-87
2023/08/21 10:21:59;;;;;;;1.00;0.90;;;25.60;92.70;;;;;;4973524;28;20513;-88
2023/08/21 10:24:33;;;;;;;1.33;1.10;;;25.60;91.60;;;;;;4973748;28;20437;-90
2023/08/21 10:29:26;;;;;;;1.20;1.10;;;25.80;91.30;;;;;;4991069;28;20460;-66
2023/08/21 10:32:00;;;;;;;2.17;1.03;;;25.80;90.80;;;;;;4976094;28;20453;-64
2023/08/21 10:34:32;;;;;;;1.47;1.37;;;25.90;91.10;;;;;;4971761;28;20198;-64
2023/08/21 10:37:11;;;;;;;0.90;0.80;;;26.00;90.00;;;;;;4972742;28;20417;-63
2023/08/21 10:39:39;;;;;;;4.73;1.80;;;26.10;87.40;;;;;;4973277;28;20414;-63
2023/08/21 10:42:08;;;;;;;1.73;1.53;;;26.20;88.20;;;;;;4971233;28;20453;-66
2023/08/21 10:44:45;;;;;;;1.37;1.27;;;26.30;88.20;;;;;;4971651;28;20454;-63
2023/08/21 10:47:14;;;;;;;1.00;0.90;;;26.30;88.00;;;;;;4972378;28;20508;-66
2023/08/21 10:49:40;;;;;;;1.83;1.00;;;26.40;87.50;;;;;;4971412;28;20803;-68
2023/08/21 10:52:08;;;;;;;1.43;1.20;;;26.50;88.50;;;;;;4973217;28;20958;-65
2023/08/21 10:54:48;;;;;;;0.70;0.70;;;26.60;87.90;;;;;;4972535;28;20185;-65
2023/08/21 10:57:14;;;;;;;1.10;1.00;;;26.70;86.50;;;;;;4971121;28;20521;-65
2023/08/21 10:59:53;;;;;;;1.90;1.67;;;26.70;87.00;;;;;;4971354;28;20529;-65
2023/08/21 11:02:19;;;;;;;1.77;1.50;;;26.80;85.70;;;;;;4965044;28;20442;-67
2023/08/21 11:04:45;;;;;;;2.50;2.13;;;26.90;87.10;;;;;;4972269;28;20430;-66
2023/08/21 11:07:11;;;;;;;1.93;1.63;;;26.90;86.70;;;;;;4970596;28;20202;-66
2023/08/21 11:09:36;;;;;;;0.90;0.80;;;26.90;86.40;;;;;;4971916;28;20174;-66
2023/08/21 11:12:10;;;;;;;1.60;1.50;;;27.00;86.60;;;;;;4971823;28;20441;-66
2023/08/21 11:14:36;;;;;;;1.33;1.10;;;27.00;87.10;;;;;;4970995;28;20187;-65
2023/08/21 11:17:03;;;;;;;2.30;1.20;;;27.10;87.60;;;;;;4972049;28;20421;-66
2023/08/21 11:19:31;;;;;;;1.40;1.30;;;27.20;88.20;;;;;;4972139;28;20422;-65
2023/08/21 11:21:59;;;;;;;0.90;0.90;;;27.30;87.40;;;;;;4971875;28;20968;-65
2023/08/21 11:24:39;;;;;;;1.00;1.00;;;27.40;87.40;;;;;;4971022;28;20429;-65
2023/08/21 11:27:05;;;;;;;0.80;0.77;;;27.40;88.40;;;;;;4971456;28;20457;-66
2023/08/21 11:29:42;;;;;;;1.53;1.43;;;27.50;89.10;;;;;;4970517;28;20477;-65
2023/08/21 11:32:09;;;;;;;1.17;1.17;;;27.70;89.60;;;;;;4969814;28;20472;-65
2023/08/21 11:34:35;;;;;;;2.00;1.20;;;27.70;87.50;;;;;;4970704;28;20432;-68
2023/08/21 11:37:01;;;;;;;1.10;1.00;;;27.80;88.60;;;;;;4971518;28;20433;-66
2023/08/21 11:39:29;;;;;;;1.40;1.30;;;27.90;88.10;;;;;;4971662;28;20205;-65
2023/08/21 11:41:59;;;;;;;3.90;1.47;;;27.90;87.10;;;;;;4969977;28;20210;-66
2023/08/21 11:44:25;;;;;;;1.47;1.00;;;27.90;86.20;;;;;;4971717;28;20448;-65
2023/08/21 11:46:53;;;;;;;1.27;1.17;;;27.90;86.60;;;;;;4971631;28;20859;-66
2023/08/21 11:49:19;;;;;;;1.87;1.20;;;27.90;85.60;;;;;;4963755;28;20849;-65
2023/08/21 11:51:46;;;;;;;0.80;0.80;;;27.90;86.20;;;;;;4966859;28;20442;-66
2023/08/21 11:54:11;;;;;;;1.07;0.97;;;28.00;86.50;;;;;;4970800;28;20847;-65
2023/08/21 11:56:38;;;;;;;1.30;1.17;;;28.00;86.40;;;;;;4970133;28;20461;-66
2023/08/21 11:59:04;;;;;;;1.83;1.43;;;28.10;86.80;;;;;;4971203;28;20209;-65
2023/08/21 12:01:33;;;;;;;1.40;1.30;;;28.20;86.90;;;;;;4971438;28;20473;-66
2023/08/21 12:03:59;;;;;;;0.93;0.90;;;28.30;86.20;;;;;;4969852;28;20211;-65
2023/08/21 12:06:26;;;;;;;1.17;1.07;;;28.40;86.30;;;;;;4971554;28;20809;-66
2023/08/21 12:08:51;;;;;;;1.33;0.93;;;28.40;85.60;;;;;;4969846;28;20462;-65
2023/08/21 12:11:17;;;;;;;4.73;1.87;;;28.50;86.90;;;;;;4970088;28;20864;-65
2023/08/21 12:13:43;;;;;;;3.23;1.20;;;28.60;86.10;;;;;;4969703;28;20178;-66
2023/08/21 12:16:08;;;;;;;3.57;1.63;;;28.70;86.60;;;;;;4971000;28;20214;-65
2023/08/21 12:18:34;;;;;;;7.40;1.60;;;28.80;86.20;;;;;;4974403;28;20237;-66
2023/08/21 12:20:59;;;;;;;1.43;1.30;;;28.90;86.10;;;;;;4973120;28;20693;-66
2023/08/21 12:23:25;;;;;;;1.27;1.23;;;29.00;85.80;;;;;;4969492;28;20639;-66
2023/08/21 12:25:51;;;;;;;1.17;1.07;;;29.10;86.40;;;;;;4967830;28;20606;-66
2023/08/21 12:28:16;;;;;;;1.60;1.10;;;29.20;86.80;;;;;;4967450;28;20213;-66
2023/08/21 12:30:42;;;;;;;1.47;1.37;;;29.20;85.80;;;;;;4967077;28;20909;-68
2023/08/21 12:33:07;;;;;;;2.47;2.03;;;29.20;85.50;;;;;;4964399;28;20186;-66
2023/08/21 12:35:33;;;;;;;1.70;1.30;;;29.30;85.80;;;;;;4973629;28;20561;-66
2023/08/21 12:37:58;;;;;;;1.40;1.30;;;29.30;85.80;;;;;;4967575;28;20423;-66
2023/08/21 12:40:24;;;;;;;1.40;1.40;;;29.50;86.80;;;;;;4966633;28;20190;-66
2023/08/21 12:42:50;;;;;;;1.80;1.70;;;29.60;86.20;;;;;;4966686;28;20182;-65
2023/08/21 12:45:16;;;;;;;2.10;1.60;;;29.70;86.20;;;;;;4967042;28;20430;-66
2023/08/21 12:47:42;;;;;;;1.30;1.20;;;29.80;84.50;;;;;;4966871;28;20226;-66
2023/08/21 12:50:08;;;;;;;2.73;1.70;;;29.90;85.90;;;;;;4972925;28;20426;-66
2023/08/21 12:52:34;;;;;;;1.50;1.40;;;30.00;85.90;;;;;;4963464;28;20710;-66
2023/08/21 12:55:03;;;;;;;2.50;1.57;;;30.10;86.50;;;;;;4968510;28;20414;-65
2023/08/21 12:57:28;;;;;;;1.40;1.27;;;30.10;85.30;;;;;;4968773;28;20244;-65
2023/08/21 12:59:54;;;;;;;5.20;1.67;;;30.10;85.10;;;;;;4968711;28;20418;-66
2023/08/21 13:02:19;;;;;;;1.93;1.57;;;30.20;84.20;;;;;;4967419;28;20209;-65
2023/08/21 13:04:45;;;;;;;1.27;1.17;;;30.20;84.90;;;;;;4969372;28;20178;-65
2023/08/21 13:07:11;;;;;;;1.40;1.27;;;30.30;84.10;;;;;;4964251;28;20199;-65
2023/08/21 13:09:36;;;;;;;1.87;1.67;;;30.30;82.30;;;;;;4966944;28;20210;-65
2023/08/21 13:12:02;;;;;;;1.43;1.33;;;30.30;82.20;;;;;;4967368;28;20191;-66
2023/08/21 13:14:28;;;;;;;1.93;1.90;;;30.30;84.90;;;;;;4972027;28;20204;-65
2023/08/21 13:16:53;;;;;;;2.20;1.60;;;30.40;84.80;;;;;;4978164;28;20414;-65
2023/08/21 13:19:19;;;;;;;3.20;1.73;;;30.50;84.60;;;;;;4969448;28;20179;-65
2023/08/21 13:21:45;;;;;;;1.90;1.60;;;30.70;84.00;;;;;;4968268;28;20425;-65
2023/08/21 13:24:10;;;;;;;2.40;1.73;;;30.70;84.20;;;;;;4969842;28;20270;-65
2023/08/21 13:26:36;;;;;;;1.47;1.37;;;30.80;84.20;;;;;;4968010;28;20230;-65
2023/08/21 13:29:01;;;;;;;1.50;1.40;;;30.80;81.70;;;;;;4971310;28;20218;-65
2023/08/21 13:31:28;;;;;;;1.70;1.47;;;30.70;81.50;;;;;;4968463;28;20198;-65
2023/08/21 13:33:54;;;;;;;2.67;2.33;;;30.70;81.50;;;;;;4967912;28;20689;-65
2023/08/21 13:36:21;;;;;;;3.67;2.00;;;30.70;81.10;;;;;;4965607;28;20434;-66
2023/08/21 13:38:47;;;;;;;1.83;1.67;;;30.70;80.10;;;;;;4966736;28;20279;-66
2023/08/21 13:41:12;;;;;;;1.47;1.37;;;30.80;82.10;;;;;;4963130;28;20453;-66
2023/08/21 13:43:38;;;;;;;2.27;2.07;;;30.90;82.80;;;;;;4966690;28;20181;-66
2023/08/21 13:46:04;;;;;;;4.10;1.43;;;30.90;80.10;;;;;;4968506;28;20214;-66
2023/08/21 13:48:33;;;;;;;1.23;1.13;;;30.90;80.10;;;;;;4969840;28;20429;-66
2023/08/21 13:50:58;;;;;;;1.97;1.63;;;30.90;80.30;;;;;;4971925;28;20194;-66
2023/08/21 13:53:24;;;;;;;1.50;1.40;;;30.80;79.80;;;;;;4968929;28;20426;-67
2023/08/21 13:55:50;;;;;;;1.37;1.27;;;30.80;80.00;;;;;;4975824;28;20560;-66
2023/08/21 13:58:16;;;;;;;2.60;1.70;;;30.90;80.50;;;;;;4970652;28;20633;-66
2023/08/21 14:00:42;;;;;;;1.53;1.43;;;30.90;80.00;;;;;;4974550;28;20480;-67
2023/08/21 14:03:07;;;;;;;3.53;1.93;;;30.90;80.90;;;;;;4968953;28;20182;-66
2023/08/21 14:05:33;;;;;;;2.20;1.67;;;30.90;80.90;;;;;;4972182;28;20182;-66
2023/08/21 14:08:00;;;;;;;4.30;1.83;;;30.90;81.10;;;;;;4967612;28;20206;-66
2023/08/21 14:10:26;;;;;;;1.60;1.40;;;31.00;81.70;;;;;;4969138;28;20452;-66
2023/08/21 14:12:51;;;;;;;9.30;1.67;;;31.00;82.10;;;;;;4970624;28;20937;-66
2023/08/21 14:15:18;;;;;;;1.90;1.20;;;31.10;81.40;;;;;;4968754;28;20189;-66
2023/08/21 14:17:44;;;;;;;2.27;1.80;;;31.10;81.50;;;;;;4968917;28;20204;-66
2023/08/21 14:20:11;;;;;;;3.60;1.90;;;31.20;81.70;;;;;;4967223;28;20473;-66
2023/08/21 14:22:37;;;;;;;1.17;1.10;;;31.20;80.60;;;;;;4968930;28;20421;-66
2023/08/21 14:25:05;;;;;;;3.13;1.47;;;31.10;81.10;;;;;;4967539;28;20433;-66
2023/08/21 14:27:31;;;;;;;1.50;1.40;;;31.20;81.90;;;;;;4959246;28;20565;-66
2023/08/21 14:29:57;;;;;;;1.57;1.47;;;31.30;82.80;;;;;;4964270;28;20516;-66
2023/08/21 14:32:23;;;;;;;1.20;1.10;;;31.40;82.00;;;;;;4965583;28;20433;-66
2023/08/21 14:34:48;;;;;;;1.53;1.43;;;31.50;81.80;;;;;;4967035;28;20414;-67
2023/08/21 14:37:15;;;;;;;2.40;1.27;;;31.50;82.00;;;;;;4973155;28;20174;-66
2023/08/21 14:39:42;;;;;;;3.13;1.27;;;31.60;81.60;;;;;;4977674;28;20177;-67
2023/08/21 14:42:08;;;;;;;2.13;1.30;;;31.50;81.70;;;;;;4978218;28;20452;-66
2023/08/21 14:44:34;;;;;;;3.67;2.57;;;31.40;81.60;;;;;;4980340;28;20463;-66
2023/08/21 14:46:59;;;;;;;1.30;1.20;;;31.40;80.70;;;;;;4982380;28;20365;-67
2023/08/21 14:49:25;;;;;;;2.10;1.30;;;31.30;81.10;;;;;;4983925;28;20188;-66
2023/08/21 14:51:51;;;;;;;1.10;1.00;;;31.30;81.80;;;;;;4980368;28;20264;-67
2023/08/21 14:54:17;;;;;;;8.40;2.30;;;31.10;79.80;;;;;;4984015;28;20233;-66
2023/08/21 14:56:43;;;;;;;1.73;1.30;;;30.90;80.50;;;;;;4980978;28;20862;-66
2023/08/21 14:59:11;;;;;;;2.87;1.67;;;30.80;81.80;;;;;;4982320;28;20549;-66
2023/08/21 15:01:38;;;;;;;3.30;1.23;;;30.90;82.60;;;;;;4983487;28;20193;-66
2023/08/21 15:04:04;;;;;;;5.60;1.40;;;31.00;84.00;;;;;;4984833;28;20767;-66
2023/08/21 15:06:29;;;;;;;4.77;1.93;;;31.20;82.60;;;;;;4981946;28;20459;-66
2023/08/21 15:08:55;;;;;;;2.93;1.57;;;31.10;82.20;;;;;;4978139;28;20170;-66
2023/08/21 15:11:20;;;;;;;2.60;1.80;;;31.00;81.90;;;;;;4980126;28;20258;-67
2023/08/21 15:13:46;;;;;;;1.57;1.50;;;30.70;81.50;;;;;;4979637;28;20214;-67
2023/08/21 15:16:12;;;;;;;1.30;1.20;;;30.50;82.40;;;;;;4970443;28;20194;-66
2023/08/21 15:18:37;;;;;;;3.30;1.43;;;30.20;82.70;;;;;;4956970;28;20654;-66
2023/08/21 15:21:03;;;;;;;1.50;1.40;;;29.90;82.80;;;;;;4972060;28;20290;-66
2023/08/21 15:23:28;;;;;;;1.90;1.20;;;29.80;84.40;;;;;;4972068;28;20245;-66
2023/08/21 15:25:54;;;;;;;2.37;1.87;;;29.80;83.50;;;;;;4971658;28;20214;-66
2023/08/21 15:28:19;;;;;;;3.90;2.13;;;29.70;84.00;;;;;;4969839;28;20301;-66
2023/08/21 15:30:45;;;;;;;3.70;1.60;;;29.60;83.90;;;;;;4970884;28;20305;-66
2023/08/21 15:33:11;;;;;;;1.20;1.10;;;29.50;84.50;;;;;;4971465;28;20192;-66
2023/08/21 15:35:36;;;;;;;1.57;1.57;;;29.30;84.20;;;;;;4960095;28;20195;-66
2023/08/21 15:38:03;;;;;;;2.73;1.63;;;29.20;84.50;;;;;;4967557;28;20214;-65
2023/08/21 15:40:29;;;;;;;1.67;1.27;;;29.00;85.30;;;;;;4969863;28;20242;-66
2023/08/21 15:42:54;;;;;;;1.87;1.77;;;28.90;85.40;;;;;;4970563;28;20457;-66
2023/08/21 15:45:21;;;;;;;1.40;1.30;;;28.80;85.50;;;;;;4970926;28;20466;-66
2023/08/21 15:47:48;;;;;;;3.03;1.90;;;28.80;86.70;;;;;;4965411;28;20258;-66
2023/08/21 15:50:14;;;;;;;4.43;1.80;;;28.80;88.10;;;;;;4970564;28;20429;-66
2023/08/21 15:52:39;;;;;;;1.33;1.30;;;28.80;89.80;;;;;;4970146;28;20429;-66
2023/08/21 15:55:05;;;;;;;8.40;1.90;;;28.90;89.10;;;;;;4970023;28;20437;-66
2023/08/21 15:57:31;;;;;;;1.33;1.23;;;28.80;87.80;;;;;;4966471;28;20197;-66
2023/08/21 15:59:57;;;;;;;2.00;1.77;;;28.70;87.00;;;;;;4967078;28;20282;-66
2023/08/21 16:02:23;;;;;;;1.53;1.43;;;28.70;87.30;;;;;;4970055;28;20867;-66
2023/08/21 16:04:48;;;;;;;3.47;1.67;;;28.60;86.90;;;;;;4970125;28;20186;-66
2023/08/21 16:07:14;;;;;;;1.77;1.50;;;28.50;87.30;;;;;;4967168;28;20215;-66
2023/08/21 16:09:39;;;;;;;1.33;1.23;;;28.40;87.30;;;;;;4970063;28;20232;-66
2023/08/21 16:12:05;;;;;;;1.60;1.50;;;28.30;87.40;;;;;;4955811;28;20697;-66
2023/08/21 16:14:31;;;;;;;2.40;1.90;;;28.30;87.60;;;;;;4968044;28;20187;-67
2023/08/21 16:16:56;;;;;;;1.43;1.30;;;28.20;88.20;;;;;;4998594;23;20237;-68
2023/08/21 16:19:25;;;;;;;2.40;1.87;;;28.10;88.00;;;;;;4992268;28;20201;-68
2023/08/21 16:21:50;;;;;;;2.53;1.43;;;28.10;88.40;;;;;;4973490;28;20675;-68
2023/08/21 16:24:17;;;;;;;2.60;1.47;;;28.00;88.20;;;;;;4969764;28;20429;-66
2023/08/21 16:26:49;;;;;;;1.93;1.50;;;27.90;88.40;;;;;;4984667;28;20210;-66
2023/08/21 16:29:17;;;;;;;3.63;1.77;;;27.90;88.70;;;;;;4971767;28;20466;-66
2023/08/21 16:31:44;;;;;;;2.63;2.43;;;28.10;89.50;;;;;;4970795;28;20497;-66
2023/08/21 16:34:09;;;;;;;1.87;1.30;;;28.30;89.50;;;;;;4969610;28;20441;-66
2023/08/21 16:36:35;;;;;;;1.43;1.33;;;28.50;90.00;;;;;;4977703;28;20437;-66
2023/08/21 16:39:01;;;;;;;1.47;1.40;;;28.70;90.10;;;;;;4970970;28;20977;-66
2023/08/21 16:41:26;;;;;;;2.30;1.87;;;28.80;90.00;;;;;;4969588;28;20211;-66
2023/08/21 16:43:52;;;;;;;1.90;1.57;;;29.00;88.90;;;;;;4969496;28;20289;-66